Time;durP1;ratioP1;P1;durP2;ratioP2;P2;SDS_P1;SDS_P2;PMS_P1;PMS_P2;Temp;Humidity;BMP_temperature;BMP_pressure;BME280_temperature;BME280_humidity;BME280_pressure;Samples;Min_cycle;Max_cycle;Signal;HPM_P1;HPM_P2
2022/09/09 00:01:14;;;;;;;11.07;8.00;;;;;;;;;;4890420;29;20235;-43
2022/09/09 00:03:59;;;;;;;11.23;9.10;;;;;;;;;;4883812;29;20598;-43
2022/09/09 00:06:30;;;;;;;14.80;8.53;;;;;;;;;;4888242;29;20191;-42
2022/09/09 00:09:02;;;;;;;12.30;9.40;;;;;;;;;;4888749;29;20187;-44
2022/09/09 00:11:48;;;;;;;12.47;9.13;;;;;;;;;;4890732;29;20180;-44
2022/09/09 00:14:26;;;;;;;13.23;9.13;;;;;;;;;;4891030;29;20184;-43
2022/09/09 00:16:56;;;;;;;12.07;8.20;;;;;;;;;;4885720;29;20701;-43
2022/09/09 00:19:29;;;;;;;12.30;8.90;;;;;;;;;;4889852;29;20611;-43
2022/09/09 00:22:15;;;;;;;12.33;8.83;;;;;;;;;;4890043;29;20188;-42
2022/09/09 00:24:43;;;;;;;15.67;9.73;;;;;;;;;;4889316;29;20733;-44
2022/09/09 00:27:30;;;;;;;13.77;9.20;;;;;;;;;;4887558;29;20296;-43
2022/09/09 00:30:01;;;;;;;13.50;8.80;;;;;;;;;;4891575;29;20183;-44
2022/09/09 00:32:29;;;;;;;14.17;9.57;;;;;;;;;;4891833;29;20258;-43
2022/09/09 00:35:15;;;;;;;11.13;8.83;;;;;;;;;;4891045;29;20262;-44
2022/09/09 00:37:42;;;;;;;10.30;8.77;;;;;;;;;;4887343;29;20184;-43
2022/09/09 00:40:19;;;;;;;12.93;8.73;;;;;;;;;;4889160;29;20184;-44
2022/09/09 00:42:45;;;;;;;12.33;8.13;;;;;;;;;;4892295;29;20184;-44
2022/09/09 00:45:31;;;;;;;11.17;8.40;;;;;;;;;;4891538;29;20780;-44
2022/09/09 00:47:57;;;;;;;13.50;9.70;;;;;;;;;;4887590;29;20638;-43
2022/09/09 00:50:32;;;;;;;13.40;9.23;;;;;;;;;;4888314;29;20745;-44
2022/09/09 00:53:11;;;;;;;11.60;8.70;;;;;;;;;;4889889;29;20565;-42
2022/09/09 00:55:53;;;;;;;11.10;8.53;;;;;;;;;;4890157;29;20199;-43
2022/09/09 00:58:19;;;;;;;16.43;9.17;;;;;;;;;;4891076;29;20828;-43
2022/09/09 01:00:48;;;;;;;14.87;8.83;;;;;;;;;;4888484;29;20188;-44
2022/09/09 01:03:33;;;;;;;12.43;8.80;;;;;;;;;;4889051;29;20184;-43
2022/09/09 01:06:18;;;;;;;12.43;8.90;;;;;;;;;;4888717;29;20310;-43
2022/09/09 01:08:47;;;;;;;13.30;10.27;;;;;;;;;;4889803;29;20927;-43
2022/09/09 01:11:21;;;;;;;10.93;8.30;;;;;;;;;;4887770;29;20279;-42
2022/09/09 01:13:50;;;;;;;13.73;9.00;;;;;;;;;;4888405;29;21108;-43
2022/09/09 01:16:17;;;;;;;10.70;8.10;;;;;;;;;;4890130;29;20287;-43
2022/09/09 01:18:48;;;;;;;16.00;9.53;;;;;;;;;;4890828;29;20176;-43
2022/09/09 01:21:28;;;;;;;10.30;8.97;;;;;;;;;;4892607;28;20184;-42
2022/09/09 01:23:54;;;;;;;13.33;9.37;;;;;;;;;;4895709;29;20638;-43
2022/09/09 01:26:38;;;;;;;12.10;8.27;;;;;;;;;;4892206;29;20655;-43
2022/09/09 01:29:07;;;;;;;13.80;9.27;;;;;;;;;;4893985;29;20188;-44
2022/09/09 01:31:37;;;;;;;14.13;8.27;;;;;;;;;;4893683;29;20195;-43
2022/09/09 01:34:03;;;;;;;10.47;8.30;;;;;;;;;;4894097;29;20327;-43
2022/09/09 01:36:33;;;;;;;10.63;8.20;;;;;;;;;;4890611;29;20184;-44
2022/09/09 01:38:59;;;;;;;12.47;8.17;;;;;;;;;;4891974;29;20196;-43
2022/09/09 01:41:25;;;;;;;12.50;8.30;;;;;;;;;;4885601;29;20234;-43
2022/09/09 01:43:53;;;;;;;12.03;7.83;;;;;;;;;;4894730;29;20176;-43
2022/09/09 01:46:21;;;;;;;10.47;7.20;;;;;;;;;;4888964;29;20184;-43
2022/09/09 01:48:48;;;;;;;10.00;7.70;;;;;;;;;;4887742;29;20180;-44
2022/09/09 01:51:15;;;;;;;11.90;8.00;;;;;;;;;;4888525;29;20893;-42
2022/09/09 01:53:42;;;;;;;10.07;7.70;;;;;;;;;;4891363;29;20598;-43
2022/09/09 01:56:08;;;;;;;12.77;7.87;;;;;;;;;;4892347;29;20188;-43
2022/09/09 01:58:54;;;;;;;13.47;8.70;;;;;;;;;;4888117;29;20513;-44
2022/09/09 02:01:20;;;;;;;12.47;8.83;;;;;;;;;;4892498;28;20642;-43
2022/09/09 02:03:49;;;;;;;12.30;9.07;;;;;;;;;;4889390;29;20211;-43
2022/09/09 02:06:26;;;;;;;11.00;8.63;;;;;;;;;;4890552;29;20748;-43
2022/09/09 02:08:56;;;;;;;15.57;9.67;;;;;;;;;;4893667;29;20207;-43
2022/09/09 02:11:23;;;;;;;12.17;9.10;;;;;;;;;;4891451;29;21022;-42
2022/09/09 02:13:51;;;;;;;14.27;9.97;;;;;;;;;;4891464;29;20657;-43
2022/09/09 02:16:27;;;;;;;15.40;10.63;;;;;;;;;;4889073;29;20219;-43
2022/09/09 02:18:59;;;;;;;18.53;12.23;;;;;;;;;;4889186;29;20179;-43
2022/09/09 02:21:26;;;;;;;16.13;11.73;;;;;;;;;;4894856;29;20239;-42
2022/09/09 02:23:53;;;;;;;16.27;11.73;;;;;;;;;;4890905;29;20505;-43
2022/09/09 02:26:21;;;;;;;13.60;11.17;;;;;;;;;;4888399;29;20488;-42
2022/09/09 02:28:51;;;;;;;14.90;12.13;;;;;;;;;;4890938;29;21055;-43
2022/09/09 02:31:19;;;;;;;18.27;12.77;;;;;;;;;;4891233;29;20367;-43
2022/09/09 02:33:49;;;;;;;17.43;12.40;;;;;;;;;;4895386;29;20368;-43
2022/09/09 02:36:16;;;;;;;17.23;11.73;;;;;;;;;;4890305;29;20188;-42
2022/09/09 02:38:53;;;;;;;19.10;12.23;;;;;;;;;;4888088;29;20300;-43
2022/09/09 02:41:32;;;;;;;14.60;11.40;;;;;;;;;;4892553;29;20191;-42
2022/09/09 02:43:58;;;;;;;13.93;10.53;;;;;;;;;;4891384;29;20272;-43
2022/09/09 02:46:24;;;;;;;17.20;12.93;;;;;;;;;;4884909;29;20172;-42
2022/09/09 02:49:02;;;;;;;15.37;11.07;;;;;;;;;;4889947;29;20184;-43
2022/09/09 02:51:43;;;;;;;18.20;12.87;;;;;;;;;;4890873;29;20172;-43
2022/09/09 02:54:30;;;;;;;14.57;11.70;;;;;;;;;;4892184;29;21033;-41
2022/09/09 02:56:57;;;;;;;13.37;10.77;;;;;;;;;;4888487;29;20989;-42
2022/09/09 02:59:25;;;;;;;19.20;13.33;;;;;;;;;;4889568;28;20655;-43
2022/09/09 03:01:53;;;;;;;19.27;15.10;;;;;;;;;;4890108;29;20184;-43
2022/09/09 03:04:19;;;;;;;23.37;14.83;;;;;;;;;;4893209;29;20454;-41
2022/09/09 03:06:46;;;;;;;18.00;14.33;;;;;;;;;;4888418;29;20180;-42
2022/09/09 03:09:12;;;;;;;18.80;14.00;;;;;;;;;;4889882;28;21123;-41
2022/09/09 03:11:38;;;;;;;21.03;15.57;;;;;;;;;;4888109;29;20184;-43
2022/09/09 03:14:05;;;;;;;19.70;14.07;;;;;;;;;;4887135;29;20281;-41
2022/09/09 03:16:32;;;;;;;17.30;14.93;;;;;;;;;;4890486;29;20513;-43
2022/09/09 03:18:58;;;;;;;16.87;13.00;;;;;;;;;;4889489;29;20598;-43
2022/09/09 03:21:25;;;;;;;18.90;12.53;;;;;;;;;;4886271;29;20177;-43
2022/09/09 03:23:51;;;;;;;16.53;13.73;;;;;;;;;;4889200;29;20700;-42
2022/09/09 03:26:17;;;;;;;20.63;15.07;;;;;;;;;;4889957;29;20233;-43
2022/09/09 03:28:44;;;;;;;20.83;16.07;;;;;;;;;;4892870;28;20801;-43
2022/09/09 03:31:11;;;;;;;20.63;15.60;;;;;;;;;;4892212;28;20181;-43
2022/09/09 03:33:37;;;;;;;23.17;16.33;;;;;;;;;;4890020;29;20356;-43
2022/09/09 03:36:04;;;;;;;18.00;13.97;;;;;;;;;;4888473;28;20191;-42
2022/09/09 03:38:31;;;;;;;19.73;16.77;;;;;;;;;;4889140;29;20184;-42
2022/09/09 03:40:58;;;;;;;25.67;18.53;;;;;;;;;;4888626;28;20334;-41
2022/09/09 03:43:24;;;;;;;24.13;20.00;;;;;;;;;;4884893;29;20863;-43
2022/09/09 03:45:51;;;;;;;28.47;20.23;;;;;;;;;;4886616;29;20208;-43
2022/09/09 03:48:17;;;;;;;27.67;21.80;;;;;;;;;;4890531;29;20179;-42
2022/09/09 03:50:50;;;;;;;28.00;23.00;;;;;;;;;;4891019;28;20184;-41
2022/09/09 03:53:19;;;;;;;29.63;21.17;;;;;;;;;;4888352;29;20476;-43
2022/09/09 03:55:48;;;;;;;30.50;23.73;;;;;;;;;;4886461;29;20184;-43
2022/09/09 03:58:15;;;;;;;22.73;18.17;;;;;;;;;;4888709;29;20621;-42
2022/09/09 04:00:42;;;;;;;27.50;18.97;;;;;;;;;;4888925;29;20295;-41
2022/09/09 04:03:11;;;;;;;21.90;16.13;;;;;;;;;;4889831;29;20295;-42
2022/09/09 04:05:39;;;;;;;17.23;13.70;;;;;;;;;;4886169;29;20204;-42
2022/09/09 04:08:06;;;;;;;27.80;14.80;;;;;;;;;;4885169;29;20195;-42
2022/09/09 04:10:32;;;;;;;18.80;13.13;;;;;;;;;;4886991;29;20259;-42
2022/09/09 04:12:59;;;;;;;21.10;12.97;;;;;;;;;;4889255;29;20616;-42
2022/09/09 04:15:25;;;;;;;13.23;11.60;;;;;;;;;;4883907;28;20294;-43
2022/09/09 04:17:51;;;;;;;16.83;8.90;;;;;;;;;;4889941;29;21127;-43
2022/09/09 04:20:19;;;;;;;31.20;11.43;;;;;;;;;;4892324;29;20213;-42
2022/09/09 04:22:45;;;;;;;17.93;8.27;;;;;;;;;;4888927;28;20925;-42
2022/09/09 04:25:11;;;;;;;9.57;5.73;;;;;;;;;;4887176;29;20208;-43
2022/09/09 04:27:37;;;;;;;10.60;6.10;;;;;;;;;;4887515;29;20196;-42
2022/09/09 04:30:03;;;;;;;7.90;5.53;;;;;;;;;;4890088;29;20624;-42
2022/09/09 04:32:29;;;;;;;7.17;5.10;;;;;;;;;;4889217;29;20176;-42
2022/09/09 04:34:55;;;;;;;9.77;6.40;;;;;;;;;;4888943;29;20271;-41
2022/09/09 04:37:21;;;;;;;8.40;5.77;;;;;;;;;;4888859;29;20184;-43
2022/09/09 04:39:47;;;;;;;9.57;5.57;;;;;;;;;;4891155;28;20188;-43
2022/09/09 04:42:14;;;;;;;9.97;5.03;;;;;;;;;;4890771;29;20195;-43
2022/09/09 04:44:40;;;;;;;8.37;4.80;;;;;;;;;;4887501;29;20689;-42
2022/09/09 04:47:06;;;;;;;8.37;4.53;;;;;;;;;;4884898;29;20305;-43
2022/09/09 04:49:32;;;;;;;8.87;4.90;;;;;;;;;;4886452;29;20180;-42
2022/09/09 04:51:58;;;;;;;10.03;4.63;;;;;;;;;;4885640;29;20579;-43
2022/09/09 04:54:25;;;;;;;6.80;4.63;;;;;;;;;;4888854;29;20256;-43
2022/09/09 04:56:51;;;;;;;8.50;5.03;;;;;;;;;;4886260;29;20638;-42
2022/09/09 04:59:17;;;;;;;6.67;5.20;;;;;;;;;;4888459;29;20197;-43
2022/09/09 05:01:43;;;;;;;12.93;5.30;;;;;;;;;;4888216;29;20185;-42
2022/09/09 05:04:10;;;;;;;7.77;5.40;;;;;;;;;;4892345;29;20720;-43
2022/09/09 05:06:36;;;;;;;8.27;4.83;;;;;;;;;;4888375;29;20785;-42
2022/09/09 05:09:02;;;;;;;10.33;5.20;;;;;;;;;;4884467;29;20184;-42
2022/09/09 05:11:30;;;;;;;13.80;5.90;;;;;;;;;;4886504;29;20454;-43
2022/09/09 05:13:59;;;;;;;7.23;5.17;;;;;;;;;;4882964;29;20291;-42
2022/09/09 05:16:26;;;;;;;10.20;4.70;;;;;;;;;;4890543;29;20326;-42
2022/09/09 05:18:52;;;;;;;7.37;4.30;;;;;;;;;;4878468;29;20468;-41
2022/09/09 05:21:19;;;;;;;8.43;4.60;;;;;;;;;;4885589;29;20270;-43
2022/09/09 05:23:46;;;;;;;8.30;4.23;;;;;;;;;;4888060;29;21763;-43
2022/09/09 05:26:13;;;;;;;7.83;3.87;;;;;;;;;;4887171;29;20757;-42
2022/09/09 05:28:39;;;;;;;8.90;3.37;;;;;;;;;;4886265;29;20207;-43
2022/09/09 05:31:12;;;;;;;8.67;3.83;;;;;;;;;;4884207;29;20903;-43
2022/09/09 05:33:40;;;;;;;6.70;3.60;;;;;;;;;;4886179;29;20197;-43
2022/09/09 05:36:16;;;;;;;6.43;3.43;;;;;;;;;;4889535;28;20755;-42
2022/09/09 05:38:43;;;;;;;7.80;3.40;;;;;;;;;;4887838;29;20356;-42
2022/09/09 05:41:10;;;;;;;8.20;3.47;;;;;;;;;;4885942;29;20633;-43
2022/09/09 05:43:37;;;;;;;6.33;3.20;;;;;;;;;;4884825;29;21003;-43
2022/09/09 05:46:07;;;;;;;9.80;3.50;;;;;;;;;;4886091;29;20204;-41
2022/09/09 05:48:38;;;;;;;6.37;3.40;;;;;;;;;;4890517;29;20180;-43
2022/09/09 05:51:06;;;;;;;7.17;3.17;;;;;;;;;;4890569;28;20191;-42
2022/09/09 05:53:33;;;;;;;6.37;2.80;;;;;;;;;;4883971;29;20447;-42
2022/09/09 05:56:17;;;;;;;9.13;3.60;;;;;;;;;;4880505;28;20311;-42
2022/09/09 05:58:49;;;;;;;8.83;4.17;;;;;;;;;;4888724;29;20613;-43
2022/09/09 06:01:24;;;;;;;7.97;4.60;;;;;;;;;;4880428;29;20294;-43
2022/09/09 06:03:52;;;;;;;6.00;4.33;;;;;;;;;;4886687;28;20188;-42
2022/09/09 06:06:22;;;;;;;6.90;4.00;;;;;;;;;;4887845;29;20211;-42
2022/09/09 06:08:49;;;;;;;9.63;5.40;;;;;;;;;;4889239;29;20419;-43
2022/09/09 06:11:19;;;;;;;13.20;4.53;;;;;;;;;;4888953;29;20187;-42
2022/09/09 06:13:45;;;;;;;9.13;4.40;;;;;;;;;;4888060;29;20180;-43
2022/09/09 06:16:16;;;;;;;8.50;4.33;;;;;;;;;;4884263;29;20180;-43
2022/09/09 06:18:43;;;;;;;5.63;3.73;;;;;;;;;;4887458;29;20192;-42
2022/09/09 06:21:15;;;;;;;9.83;3.80;;;;;;;;;;4890398;29;20181;-43
2022/09/09 06:23:41;;;;;;;9.50;4.30;;;;;;;;;;4892160;29;20188;-43
2022/09/09 06:26:10;;;;;;;7.60;3.10;;;;;;;;;;4886272;29;20347;-43
2022/09/09 06:28:36;;;;;;;6.73;3.40;;;;;;;;;;4890444;29;20408;-42
2022/09/09 06:31:07;;;;;;;8.50;3.53;;;;;;;;;;4888212;29;20587;-43
2022/09/09 06:33:35;;;;;;;9.63;3.60;;;;;;;;;;4890654;29;20192;-43
2022/09/09 06:36:03;;;;;;;12.47;3.97;;;;;;;;;;4887690;28;21046;-43
2022/09/09 06:38:29;;;;;;;7.07;3.40;;;;;;;;;;4890860;29;20189;-43
2022/09/09 06:40:58;;;;;;;8.67;2.57;;;;;;;;;;4887899;28;20200;-42
2022/09/09 06:43:24;;;;;;;6.60;2.93;;;;;;;;;;4888913;29;20210;-43
2022/09/09 06:45:54;;;;;;;6.13;2.60;;;;;;;;;;4893472;29;20319;-43
2022/09/09 06:48:20;;;;;;;5.63;2.83;;;;;;;;;;4890905;29;20177;-42
2022/09/09 06:50:47;;;;;;;8.17;3.47;;;;;;;;;;4889448;29;20995;-43
2022/09/09 06:53:13;;;;;;;5.63;2.80;;;;;;;;;;4891608;28;20294;-43
2022/09/09 06:55:42;;;;;;;4.60;2.67;;;;;;;;;;4892607;29;20955;-43
2022/09/09 06:58:11;;;;;;;8.67;3.40;;;;;;;;;;4892822;29;20283;-43
2022/09/09 07:00:40;;;;;;;10.07;3.73;;;;;;;;;;4883200;29;20207;-43
2022/09/09 07:03:06;;;;;;;7.53;4.07;;;;;;;;;;4889063;29;20499;-42
2022/09/09 07:05:32;;;;;;;10.30;3.60;;;;;;;;;;4881878;29;20214;-43
2022/09/09 07:07:58;;;;;;;11.03;4.47;;;;;;;;;;4888994;28;20195;-41
2022/09/09 07:10:24;;;;;;;9.87;3.43;;;;;;;;;;4891133;29;20492;-43
2022/09/09 07:12:52;;;;;;;10.63;4.40;;;;;;;;;;4888632;29;20424;-43
2022/09/09 07:15:18;;;;;;;8.17;4.37;;;;;;;;;;4888868;28;20751;-43
2022/09/09 07:17:44;;;;;;;9.33;4.10;;;;;;;;;;4890923;29;20785;-44
2022/09/09 07:20:12;;;;;;;7.00;3.87;;;;;;;;;;4889688;29;20696;-43
2022/09/09 07:22:38;;;;;;;8.20;3.73;;;;;;;;;;4890868;29;20187;-43
2022/09/09 07:25:04;;;;;;;7.40;4.73;;;;;;;;;;4890854;29;20830;-43
2022/09/09 07:27:30;;;;;;;14.27;5.07;;;;;;;;;;4893525;29;20181;-41
2022/09/09 07:29:57;;;;;;;8.33;4.67;;;;;;;;;;4894533;29;20185;-42
2022/09/09 07:32:25;;;;;;;12.67;6.73;;;;;;;;;;4893853;28;20212;-40
2022/09/09 07:34:51;;;;;;;18.60;10.30;;;;;;;;;;4891161;29;20345;-41
2022/09/09 07:37:17;;;;;;;28.40;16.00;;;;;;;;;;4899869;29;20184;-40
2022/09/09 07:39:44;;;;;;;32.67;17.03;;;;;;;;;;4901620;29;20191;-42
2022/09/09 07:42:11;;;;;;;25.97;16.00;;;;;;;;;;4901660;29;20184;-42
2022/09/09 07:44:39;;;;;;;32.43;16.87;;;;;;;;;;4906342;29;20914;-42
2022/09/09 07:47:05;;;;;;;27.10;16.50;;;;;;;;;;4900606;29;20187;-42
2022/09/09 07:49:32;;;;;;;26.27;17.23;;;;;;;;;;4903358;28;20805;-42
2022/09/09 07:51:58;;;;;;;29.13;20.07;;;;;;;;;;4899245;29;20181;-43
2022/09/09 07:54:26;;;;;;;26.03;18.83;;;;;;;;;;4896730;29;21263;-43
2022/09/09 07:56:52;;;;;;;24.30;17.80;;;;;;;;;;4894598;29;20736;-43
2022/09/09 07:59:19;;;;;;;28.50;21.03;;;;;;;;;;4894373;29;20662;-43
2022/09/09 08:01:50;;;;;;;28.63;21.20;;;;;;;;;;4890521;29;20181;-42
2022/09/09 08:04:19;;;;;;;28.37;21.83;;;;;;;;;;4888360;29;20181;-43
2022/09/09 08:06:46;;;;;;;27.70;20.07;;;;;;;;;;4891557;29;20344;-42
2022/09/09 08:09:13;;;;;;;28.70;20.90;;;;;;;;;;4891886;29;20177;-43
2022/09/09 08:11:40;;;;;;;27.33;21.47;;;;;;;;;;4890900;29;20180;-42
2022/09/09 08:14:07;;;;;;;29.50;20.70;;;;;;;;;;4891658;29;20368;-43
2022/09/09 08:16:36;;;;;;;22.83;17.73;;;;;;;;;;4892603;29;20184;-43
2022/09/09 08:19:02;;;;;;;26.90;19.93;;;;;;;;;;4890195;29;20208;-43
2022/09/09 08:21:30;;;;;;;22.57;16.67;;;;;;;;;;4893111;29;20188;-43
2022/09/09 08:23:56;;;;;;;21.20;16.60;;;;;;;;;;4893977;29;20201;-43
2022/09/09 08:26:30;;;;;;;26.80;19.23;;;;;;;;;;4893594;29;20204;-43
2022/09/09 08:28:57;;;;;;;27.67;19.77;;;;;;;;;;4891182;29;21311;-43
2022/09/09 08:31:24;;;;;;;26.93;18.90;;;;;;;;;;4886636;29;20218;-43
2022/09/09 08:33:50;;;;;;;22.53;17.93;;;;;;;;;;4893124;29;20187;-43
2022/09/09 08:36:25;;;;;;;25.83;17.77;;;;;;;;;;4894258;29;20243;-43
2022/09/09 08:38:54;;;;;;;24.50;16.27;;;;;;;;;;4890661;29;21071;-42
2022/09/09 08:41:39;;;;;;;21.87;15.37;;;;;;;;;;4888512;29;20181;-43
2022/09/09 08:44:27;;;;;;;21.30;15.93;;;;;;;;;;4888603;29;21165;-42
2022/09/09 08:47:03;;;;;;;24.13;17.03;;;;;;;;;;4888311;29;20199;-43
2022/09/09 08:49:32;;;;;;;25.87;16.97;;;;;;;;;;4887591;29;20172;-43
2022/09/09 08:51:58;;;;;;;23.70;16.63;;;;;;;;;;4886622;29;21108;-43
2022/09/09 08:54:26;;;;;;;25.43;17.30;;;;;;;;;;4887645;29;20815;-43
2022/09/09 08:56:52;;;;;;;29.23;17.47;;;;;;;;;;4895256;29;20180;-42
2022/09/09 08:59:19;;;;;;;24.17;16.13;;;;;;;;;;4894464;29;20176;-43
2022/09/09 09:02:01;;;;;;;22.23;16.87;;;;;;;;;;4887297;28;21015;-43
2022/09/09 09:04:40;;;;;;;25.10;18.33;;;;;;;;;;4882990;29;20912;-43
2022/09/09 09:07:33;;;;;;;28.47;19.77;;;;;;;;;;4887541;29;20180;-42
2022/09/09 09:10:02;;;;;;;22.83;18.00;;;;;;;;;;4892492;29;20207;-42
2022/09/09 09:12:33;;;;;;;18.20;15.17;;;;;;;;;;4895695;29;20203;-43
2022/09/09 09:14:59;;;;;;;19.60;14.13;;;;;;;;;;4893995;29;20309;-44
2022/09/09 09:17:27;;;;;;;16.80;14.10;;;;;;;;;;4897049;29;21086;-43
2022/09/09 09:19:54;;;;;;;16.37;13.30;;;;;;;;;;4894996;29;20188;-43
2022/09/09 09:22:29;;;;;;;18.40;14.57;;;;;;;;;;4894143;29;20177;-43
2022/09/09 09:24:55;;;;;;;19.90;15.53;;;;;;;;;;4893815;29;20989;-43
2022/09/09 09:27:35;;;;;;;20.30;14.73;;;;;;;;;;4896941;29;20172;-44
2022/09/09 09:30:02;;;;;;;18.07;12.97;;;;;;;;;;4896058;29;20203;-44
2022/09/09 09:32:31;;;;;;;13.05;9.82;;;;;;;;;;4893922;29;20428;-43
2022/09/09 09:34:58;;;;;;;11.68;9.13;;;;;;;;;;4894370;29;21430;-43
2022/09/09 09:37:30;;;;;;;12.52;8.65;;;;;;;;;;4898216;29;20460;-43
2022/09/09 09:39:56;;;;;;;11.77;7.72;;;;;;;;;;4900480;29;20440;-43
2022/09/09 09:42:23;;;;;;;16.17;11.33;;;;;;;;;;4902036;29;20449;-44
2022/09/09 09:44:49;;;;;;;11.38;9.68;;;;;;;;;;4901946;28;20444;-44
2022/09/09 09:47:16;;;;;;;16.67;12.60;;;;;;;;;;4901884;29;20176;-43
2022/09/09 09:49:55;;;;;;;18.57;13.30;;;;;;;;;;4906491;29;20299;-43
2022/09/09 09:52:23;;;;;;;15.03;10.37;;;;;;;;;;4902794;29;20209;-43
2022/09/09 09:54:50;;;;;;;11.10;8.37;;;;;;;;;;4899876;29;21012;-43
2022/09/09 09:57:17;;;;;;;12.43;7.20;;;;;;;;;;4897019;29;20185;-43
2022/09/09 09:59:43;;;;;;;13.17;8.03;;;;;;;;;;4899258;29;20193;-44
2022/09/09 10:02:18;;;;;;;11.20;8.10;;;;;;;;;;4898296;29;20172;-44
2022/09/09 10:04:45;;;;;;;12.50;9.23;;;;;;;;;;4899984;28;20202;-44
2022/09/09 10:07:18;;;;;;;17.07;10.77;;;;;;;;;;4902079;29;20189;-43
2022/09/09 10:09:44;;;;;;;11.37;8.00;;;;;;;;;;4901735;28;20173;-44
2022/09/09 10:12:20;;;;;;;11.80;8.50;;;;;;;;;;4900703;28;20184;-43
2022/09/09 10:14:46;;;;;;;13.00;8.87;;;;;;;;;;4896389;29;20295;-43
2022/09/09 10:17:31;;;;;;;8.97;6.53;;;;;;;;;;4897258;29;20184;-43
2022/09/09 10:20:00;;;;;;;13.00;6.40;;;;;;;;;;4900280;29;20176;-43
2022/09/09 10:22:27;;;;;;;12.70;8.30;;;;;;;;;;4899584;29;20254;-43
2022/09/09 10:25:12;;;;;;;9.20;6.50;;;;;;;;;;4898324;29;20274;-44
2022/09/09 10:27:39;;;;;;;6.67;5.00;;;;;;;;;;4897777;29;20334;-43
2022/09/09 10:30:24;;;;;;;8.90;5.23;;;;;;;;;;4901186;29;22237;-42
2022/09/09 10:32:55;;;;;;;11.50;5.93;;;;;;;;;;4895672;29;20249;-43
2022/09/09 10:35:30;;;;;;;9.13;5.50;;;;;;;;;;4897666;28;20199;-43
2022/09/09 10:38:13;;;;;;;10.87;5.60;;;;;;;;;;4914705;28;20194;-43
2022/09/09 10:40:40;;;;;;;8.27;4.47;;;;;;;;;;4896491;29;20184;-44
2022/09/09 10:43:35;;;;;;;8.73;4.37;;;;;;;;;;4903208;29;21016;-44
2022/09/09 10:46:02;;;;;;;9.17;3.07;;;;;;;;;;4895643;29;20282;-43
2022/09/09 10:48:47;;;;;;;5.87;2.77;;;;;;;;;;4894799;28;20177;-44
2022/09/09 10:51:14;;;;;;;8.13;2.63;;;;;;;;;;4891837;29;20188;-44
2022/09/09 10:53:49;;;;;;;9.27;3.20;;;;;;;;;;4893884;29;20635;-43
2022/09/09 10:56:17;;;;;;;9.30;3.10;;;;;;;;;;4893389;29;20183;-43
2022/09/09 10:58:46;;;;;;;6.13;2.93;;;;;;;;;;4892113;29;20303;-43
2022/09/09 11:01:33;;;;;;;7.50;2.93;;;;;;;;;;4891969;29;20258;-43
2022/09/09 11:04:10;;;;;;;11.87;4.03;;;;;;;;;;4895008;28;21347;-44
2022/09/09 11:06:42;;;;;;;9.43;3.73;;;;;;;;;;4897993;29;20226;-43
2022/09/09 11:09:12;;;;;;;6.30;3.20;;;;;;;;;;4895125;29;20920;-44
2022/09/09 11:11:42;;;;;;;12.00;3.30;;;;;;;;;;4898836;29;20986;-43
2022/09/09 11:14:12;;;;;;;10.13;3.33;;;;;;;;;;4899668;29;20226;-44
2022/09/09 11:16:52;;;;;;;6.93;2.70;;;;;;;;;;4899029;29;20204;-44
2022/09/09 11:19:34;;;;;;;7.17;2.60;;;;;;;;;;4901184;29;20255;-44
2022/09/09 11:22:01;;;;;;;12.57;2.97;;;;;;;;;;4898923;29;20252;-44
2022/09/09 11:24:30;;;;;;;5.80;2.10;;;;;;;;;;4901746;29;20202;-44
2022/09/09 11:27:02;;;;;;;4.33;2.47;;;;;;;;;;4900012;29;20890;-43
2022/09/09 11:29:47;;;;;;;9.27;2.40;;;;;;;;;;4896929;29;20180;-43
2022/09/09 11:32:19;;;;;;;8.20;2.50;;;;;;;;;;4901434;28;20177;-42
2022/09/09 11:34:49;;;;;;;6.17;2.37;;;;;;;;;;4902156;29;20278;-44
2022/09/09 11:37:18;;;;;;;6.23;2.00;;;;;;;;;;4895676;29;21104;-44
2022/09/09 11:40:10;;;;;;;6.80;2.67;;;;;;;;;;4897865;29;20283;-43
2022/09/09 11:42:37;;;;;;;6.40;2.10;;;;;;;;;;4898833;28;20200;-42
2022/09/09 11:45:10;;;;;;;6.27;1.70;;;;;;;;;;4900760;29;20211;-44
2022/09/09 11:47:37;;;;;;;5.40;1.97;;;;;;;;;;4893485;28;20625;-43
2022/09/09 11:50:15;;;;;;;4.83;1.67;;;;;;;;;;4886545;28;20472;-43
2022/09/09 11:52:45;;;;;;;5.60;1.80;;;;;;;;;;4885581;29;20222;-44
2022/09/09 11:55:26;;;;;;;5.77;1.50;;;;;;;;;;4885903;29;20184;-44
2022/09/09 11:57:59;;;;;;;5.20;1.50;;;;;;;;;;4890315;29;20996;-43
2022/09/09 12:00:32;;;;;;;4.10;1.50;;;;;;;;;;4890403;29;20192;-43
2022/09/09 12:02:58;;;;;;;6.17;1.63;;;;;;;;;;4888488;29;20185;-43
2022/09/09 12:05:36;;;;;;;4.07;1.87;;;;;;;;;;4893804;28;20224;-44
2022/09/09 12:08:03;;;;;;;5.63;2.00;;;;;;;;;;4901302;29;20550;-42
2022/09/09 12:10:38;;;;;;;6.50;2.33;;;;;;;;;;4899455;29;20195;-43
2022/09/09 12:13:24;;;;;;;4.03;2.20;;;;;;;;;;4897706;29;20180;-43
2022/09/09 12:15:57;;;;;;;7.77;2.60;;;;;;;;;;4896622;29;20311;-44
2022/09/09 12:18:33;;;;;;;8.87;3.77;;;;;;;;;;4901532;29;20515;-42
2022/09/09 12:21:07;;;;;;;10.20;3.70;;;;;;;;;;4900588;29;20175;-43
2022/09/09 12:23:39;;;;;;;8.80;3.37;;;;;;;;;;4897208;29;20188;-44
2022/09/09 12:26:14;;;;;;;8.03;3.50;;;;;;;;;;4898486;29;20720;-44
2022/09/09 12:28:54;;;;;;;10.27;3.33;;;;;;;;;;4889618;29;20183;-43
2022/09/09 12:31:26;;;;;;;6.17;2.90;;;;;;;;;;4886346;29;20187;-44
2022/09/09 12:33:52;;;;;;;12.23;4.07;;;;;;;;;;4890210;29;20262;-44
2022/09/09 12:36:21;;;;;;;6.67;3.60;;;;;;;;;;4891475;29;20193;-43
2022/09/09 12:38:50;;;;;;;8.23;3.70;;;;;;;;;;4893463;29;20507;-44
2022/09/09 12:41:20;;;;;;;7.77;3.50;;;;;;;;;;4895009;29;20188;-43
2022/09/09 12:43:47;;;;;;;7.93;3.47;;;;;;;;;;4887934;28;20184;-44
2022/09/09 12:46:21;;;;;;;7.53;3.00;;;;;;;;;;4889730;29;20196;-44
2022/09/09 12:48:47;;;;;;;8.50;3.07;;;;;;;;;;4889041;29;20290;-43
2022/09/09 12:51:18;;;;;;;14.13;3.40;;;;;;;;;;4886013;28;20193;-42
2022/09/09 12:53:45;;;;;;;7.57;2.80;;;;;;;;;;4887306;29;20191;-44
2022/09/09 12:56:20;;;;;;;6.03;2.90;;;;;;;;;;4889475;29;20557;-43
2022/09/09 12:58:47;;;;;;;4.87;2.90;;;;;;;;;;4891104;29;20570;-43
2022/09/09 13:01:24;;;;;;;6.93;2.93;;;;;;;;;;4888752;29;20353;-44
2022/09/09 13:03:50;;;;;;;9.57;2.70;;;;;;;;;;4890138;29;20198;-44
2022/09/09 13:06:22;;;;;;;5.93;2.50;;;;;;;;;;4897232;29;20206;-43
2022/09/09 13:08:49;;;;;;;5.40;2.17;;;;;;;;;;4897851;29;20180;-44
2022/09/09 13:11:17;;;;;;;4.60;2.03;;;;;;;;;;4897201;29;20577;-43
2022/09/09 13:13:50;;;;;;;4.13;1.90;;;;;;;;;;4901133;29;20207;-42
2022/09/09 13:16:26;;;;;;;5.07;2.10;;;;;;;;;;4901709;29;20187;-42
2022/09/09 13:18:53;;;;;;;9.33;2.00;;;;;;;;;;4901971;29;20891;-42
2022/09/09 13:21:19;;;;;;;6.20;2.10;;;;;;;;;;4892348;29;20755;-42
2022/09/09 13:23:50;;;;;;;7.30;1.90;;;;;;;;;;4890726;29;20230;-42
2022/09/09 13:26:34;;;;;;;4.20;1.70;;;;;;;;;;4894276;29;20236;-42
2022/09/09 13:29:17;;;;;;;6.33;1.97;;;;;;;;;;4894372;29;20423;-42
2022/09/09 13:31:44;;;;;;;5.23;2.03;;;;;;;;;;4897372;29;20264;-42
2022/09/09 13:34:14;;;;;;;5.83;1.70;;;;;;;;;;4897909;29;20188;-42
2022/09/09 13:36:41;;;;;;;4.80;1.87;;;;;;;;;;4890164;29;20212;-43
2022/09/09 13:39:15;;;;;;;7.87;2.10;;;;;;;;;;4893444;29;20742;-44
2022/09/09 13:41:45;;;;;;;6.23;1.67;;;;;;;;;;4890703;29;20744;-43
2022/09/09 13:44:23;;;;;;;6.07;1.83;;;;;;;;;;4890522;29;20185;-43
2022/09/09 13:46:59;;;;;;;6.00;1.80;;;;;;;;;;4889789;29;20251;-43
2022/09/09 13:49:28;;;;;;;5.03;1.70;;;;;;;;;;4889725;29;21260;-43
2022/09/09 13:52:04;;;;;;;3.87;1.67;;;;;;;;;;4892588;29;20574;-43
2022/09/09 13:54:31;;;;;;;4.67;1.83;;;;;;;;;;4891720;29;20260;-43
2022/09/09 13:56:57;;;;;;;7.37;2.23;;;;;;;;;;4892845;29;20455;-43
2022/09/09 13:59:24;;;;;;;6.67;1.90;;;;;;;;;;4891697;29;20586;-43
2022/09/09 14:01:52;;;;;;;4.57;1.50;;;;;;;;;;4902899;29;20699;-43
2022/09/09 14:04:20;;;;;;;3.87;1.67;;;;;;;;;;4898617;29;20618;-43
2022/09/09 14:06:46;;;;;;;6.83;1.70;;;;;;;;;;4898042;29;20215;-43
2022/09/09 14:09:14;;;;;;;4.83;1.63;;;;;;;;;;4897720;29;20172;-42
2022/09/09 14:11:41;;;;;;;2.40;1.50;;;;;;;;;;4898774;28;20176;-43
2022/09/09 14:14:07;;;;;;;5.83;2.10;;;;;;;;;;4902122;29;20559;-43
2022/09/09 14:16:34;;;;;;;6.50;1.90;;;;;;;;;;4896195;29;20467;-43
2022/09/09 14:19:00;;;;;;;6.83;2.00;;;;;;;;;;4899755;29;20460;-43
2022/09/09 14:21:28;;;;;;;7.07;1.53;;;;;;;;;;4903261;29;20180;-43
2022/09/09 14:23:54;;;;;;;4.93;1.90;;;;;;;;;;4899211;29;20198;-42
2022/09/09 14:26:21;;;;;;;5.83;1.73;;;;;;;;;;4891933;29;21018;-41
2022/09/09 14:28:48;;;;;;;5.80;1.90;;;;;;;;;;4888189;29;20184;-43
2022/09/09 14:31:14;;;;;;;7.30;1.93;;;;;;;;;;4885143;29;20180;-43
2022/09/09 14:33:40;;;;;;;3.93;1.50;;;;;;;;;;4887835;29;20184;-43
2022/09/09 14:36:07;;;;;;;6.20;2.10;;;;;;;;;;4887107;29;21059;-43
2022/09/09 14:38:34;;;;;;;5.53;2.10;;;;;;;;;;4890218;29;20176;-43
2022/09/09 14:41:03;;;;;;;4.67;1.60;;;;;;;;;;4896146;29;20706;-43
2022/09/09 14:43:29;;;;;;;6.30;2.00;;;;;;;;;;4896191;29;20582;-43
2022/09/09 14:45:56;;;;;;;6.47;1.70;;;;;;;;;;4886959;29;20234;-43
2022/09/09 14:48:22;;;;;;;3.63;1.70;;;;;;;;;;4887547;28;20219;-42